Time;durP1;ratioP1;P1;durP2;ratioP2;P2;SDS_P1;SDS_P2;PMS_P1;PMS_P2;Temp;Humidity;BMP_temperature;BMP_pressure;BME280_temperature;BME280_humidity;BME280_pressure;Samples;Min_cycle;Max_cycle;Signal;HPM_P1;HPM_P2
2021/04/14 00:01:02;;;;;;;5.38;4.30;;;2.10;99.90;;;;;;4955191;28;20210;-67
2021/04/14 00:03:32;;;;;;;6.63;4.15;;;1.70;99.90;;;;;;4956120;28;20219;-68
2021/04/14 00:06:00;;;;;;;6.78;4.85;;;2.20;99.90;;;;;;4949452;28;20172;-68
2021/04/14 00:08:30;;;;;;;3.90;3.42;;;1.90;99.90;;;;;;4952738;29;20179;-68
2021/04/14 00:10:56;;;;;;;6.90;4.35;;;2.00;99.90;;;;;;4953430;28;20191;-67
2021/04/14 00:13:42;;;;;;;5.85;3.40;;;1.80;99.90;;;;;;4992522;28;20554;-68
2021/04/14 00:16:23;;;;;;;4.82;4.10;;;1.80;99.90;;;;;;4992373;28;20626;-67
2021/04/14 00:18:49;;;;;;;5.30;3.90;;;1.80;99.90;;;;;;4974898;28;20225;-68
2021/04/14 00:21:17;;;;;;;5.30;3.63;;;1.90;99.90;;;;;;4974838;28;20170;-67
2021/04/14 00:24:00;;;;;;;7.10;3.47;;;1.90;99.90;;;;;;4992387;28;20629;-68
2021/04/14 00:26:31;;;;;;;3.63;2.90;;;2.00;99.90;;;;;;4991601;28;20273;-68
2021/04/14 00:28:57;;;;;;;3.90;3.25;;;1.90;99.90;;;;;;4975545;28;20639;-68
2021/04/14 00:31:36;;;;;;;7.22;4.00;;;1.70;99.90;;;;;;4975365;28;20178;-68
2021/04/14 00:34:11;;;;;;;4.75;3.63;;;1.90;99.90;;;;;;4975145;28;20208;-67
2021/04/14 00:36:38;;;;;;;8.15;3.55;;;1.80;99.90;;;;;;4974650;28;20205;-68
2021/04/14 00:39:07;;;;;;;8.20;3.95;;;1.80;99.90;;;;;;4974580;28;20166;-67
2021/04/14 00:41:34;;;;;;;4.50;4.10;;;1.70;99.90;;;;;;4992485;28;20524;-68
2021/04/14 00:44:01;;;;;;;4.65;3.70;;;1.80;99.90;;;;;;4992059;28;20218;-68
2021/04/14 00:46:28;;;;;;;4.82;3.90;;;1.90;99.90;;;;;;4992612;28;20734;-67
2021/04/14 00:48:54;;;;;;;5.35;3.55;;;1.60;99.90;;;;;;4974584;28;20170;-67
2021/04/14 00:51:21;;;;;;;4.65;3.40;;;1.60;99.90;;;;;;4961282;28;20207;-67
2021/04/14 00:53:51;;;;;;;4.20;3.35;;;1.60;99.90;;;;;;4978828;28;20566;-67
2021/04/14 00:56:17;;;;;;;8.82;4.00;;;1.80;99.90;;;;;;4966955;28;20237;-68
2021/04/14 00:58:48;;;;;;;5.15;3.70;;;1.70;99.90;;;;;;4959137;28;20276;-67
2021/04/14 01:01:14;;;;;;;5.40;3.60;;;1.60;99.90;;;;;;4995378;28;20262;-67
2021/04/14 01:03:41;;;;;;;4.93;3.28;;;1.60;99.90;;;;;;4995792;28;20205;-67
2021/04/14 01:06:17;;;;;;;7.35;3.17;;;1.60;99.90;;;;;;4978902;28;20235;-68
2021/04/14 01:08:44;;;;;;;5.22;4.00;;;1.60;99.90;;;;;;4978457;28;20185;-67
2021/04/14 01:11:11;;;;;;;4.65;3.30;;;1.60;99.90;;;;;;4978379;28;20180;-68
2021/04/14 01:13:41;;;;;;;4.50;3.40;;;1.60;99.90;;;;;;4995355;28;20204;-67
2021/04/14 01:16:07;;;;;;;6.43;3.63;;;1.60;99.90;;;;;;4978340;28;20264;-67
2021/04/14 01:18:36;;;;;;;4.22;3.15;;;1.40;99.90;;;;;;4978055;28;20201;-67
2021/04/14 01:21:05;;;;;;;4.90;3.38;;;1.50;99.90;;;;;;4962480;28;20166;-68
2021/04/14 01:23:31;;;;;;;5.45;4.40;;;1.50;99.90;;;;;;4978066;28;20208;-68
2021/04/14 01:25:59;;;;;;;11.60;3.58;;;1.30;99.90;;;;;;4978087;28;20256;-67
2021/04/14 01:28:32;;;;;;;3.78;3.10;;;1.60;99.90;;;;;;4995448;28;20171;-67
2021/04/14 01:30:59;;;;;;;5.88;3.58;;;1.60;99.90;;;;;;4978032;28;20248;-68
2021/04/14 01:33:28;;;;;;;7.13;3.80;;;1.40;99.90;;;;;;4977946;28;20271;-68
2021/04/14 01:35:54;;;;;;;7.18;3.63;;;1.40;99.90;;;;;;4961878;28;20171;-68
2021/04/14 01:38:21;;;;;;;4.25;3.25;;;1.30;99.90;;;;;;4961974;28;20274;-68
2021/04/14 01:40:47;;;;;;;4.00;3.50;;;1.30;99.90;;;;;;4977641;28;20197;-67
2021/04/14 01:43:16;;;;;;;3.97;2.92;;;1.50;99.90;;;;;;4961819;28;20204;-67
2021/04/14 01:45:44;;;;;;;4.65;3.40;;;1.50;99.90;;;;;;4995388;28;20176;-68
2021/04/14 01:48:12;;;;;;;3.80;3.40;;;1.40;99.90;;;;;;4961885;28;20188;-67
2021/04/14 01:50:41;;;;;;;3.05;2.78;;;1.50;99.90;;;;;;4994970;28;20192;-67
2021/04/14 01:53:10;;;;;;;5.03;2.97;;;1.40;99.90;;;;;;4977596;28;20210;-68
2021/04/14 01:55:37;;;;;;;4.80;3.20;;;1.20;99.90;;;;;;4994636;28;20221;-67
2021/04/14 01:58:04;;;;;;;3.75;3.08;;;1.50;99.90;;;;;;4952143;28;20194;-68
2021/04/14 02:00:46;;;;;;;3.45;3.13;;;1.30;99.90;;;;;;4975543;28;20167;-67
2021/04/14 02:03:15;;;;;;;4.65;3.00;;;1.10;99.90;;;;;;4985605;28;20202;-67
2021/04/14 02:05:41;;;;;;;5.28;2.90;;;1.30;99.90;;;;;;4977530;28;20186;-67
2021/04/14 02:08:08;;;;;;;3.97;2.85;;;1.20;99.90;;;;;;4961280;28;20741;-67
2021/04/14 02:10:37;;;;;;;3.22;2.92;;;1.20;99.90;;;;;;4994934;28;20188;-67
2021/04/14 02:13:10;;;;;;;3.90;3.13;;;1.20;99.90;;;;;;4988402;28;20286;-67
2021/04/14 02:15:36;;;;;;;6.25;3.25;;;1.10;99.90;;;;;;4994943;28;20188;-67
2021/04/14 02:18:04;;;;;;;3.40;2.70;;;1.10;99.90;;;;;;4977255;28;20206;-67
2021/04/14 02:20:32;;;;;;;5.93;3.00;;;0.90;99.90;;;;;;4994355;28;20172;-67
2021/04/14 02:22:58;;;;;;;3.42;2.80;;;1.10;99.90;;;;;;4977054;28;20207;-66
2021/04/14 02:25:27;;;;;;;3.47;3.17;;;1.00;99.90;;;;;;4994528;28;20209;-67
2021/04/14 02:27:53;;;;;;;6.40;3.40;;;0.90;99.90;;;;;;4994539;28;20252;-67
2021/04/14 02:30:27;;;;;;;4.83;3.20;;;0.90;99.90;;;;;;4977182;28;20246;-67
2021/04/14 02:32:55;;;;;;;3.25;2.95;;;0.90;99.90;;;;;;4971700;28;20423;-68
2021/04/14 02:35:23;;;;;;;5.60;3.25;;;0.90;99.90;;;;;;4994459;28;20191;-68
2021/04/14 02:37:50;;;;;;;4.65;3.28;;;0.90;99.90;;;;;;4977273;28;20288;-68
2021/04/14 02:40:16;;;;;;;4.70;3.30;;;0.80;99.90;;;;;;4977331;28;20662;-67
2021/04/14 02:42:43;;;;;;;7.53;3.97;;;0.90;99.90;;;;;;4994071;28;20168;-67
2021/04/14 02:45:11;;;;;;;6.35;3.38;;;1.00;99.90;;;;;;4961005;28;20175;-68
2021/04/14 02:47:37;;;;;;;3.80;2.80;;;0.90;99.90;;;;;;4972840;28;20186;-68
2021/04/14 02:50:09;;;;;;;4.43;3.53;;;0.90;99.90;;;;;;4992520;28;20164;-68
2021/04/14 02:52:51;;;;;;;5.13;2.80;;;1.00;99.90;;;;;;4978826;28;20781;-67
2021/04/14 02:55:18;;;;;;;4.00;3.53;;;0.90;99.90;;;;;;4976504;28;20255;-67
2021/04/14 02:57:47;;;;;;;12.43;4.05;;;0.70;99.90;;;;;;4993653;28;20567;-66
2021/04/14 03:00:15;;;;;;;4.30;2.70;;;0.80;99.90;;;;;;4976441;28;20215;-67
2021/04/14 03:02:41;;;;;;;4.80;3.70;;;1.00;99.90;;;;;;4993720;28;20183;-67
2021/04/14 03:05:11;;;;;;;3.30;2.70;;;0.70;99.90;;;;;;4994010;28;20639;-67
2021/04/14 03:07:37;;;;;;;4.13;2.88;;;0.90;99.90;;;;;;4991063;28;20235;-67
2021/04/14 03:10:06;;;;;;;6.13;3.85;;;0.70;99.90;;;;;;4992143;28;20205;-67
2021/04/14 03:12:49;;;;;;;3.78;3.00;;;0.80;99.90;;;;;;4977732;28;20239;-68
2021/04/14 03:15:23;;;;;;;3.70;3.30;;;0.90;99.90;;;;;;4993653;28;20178;-68
2021/04/14 03:17:50;;;;;;;5.45;2.95;;;0.60;99.90;;;;;;4976424;28;20210;-68
2021/04/14 03:20:20;;;;;;;4.07;2.72;;;0.60;99.90;;;;;;4984317;28;20559;-68
2021/04/14 03:22:47;;;;;;;3.88;2.50;;;0.70;99.90;;;;;;4975855;28;20619;-68
2021/04/14 03:25:14;;;;;;;3.47;2.72;;;0.70;99.90;;;;;;4976303;28;20207;-68
2021/04/14 03:27:40;;;;;;;5.38;3.72;;;0.60;99.90;;;;;;4976194;28;20184;-68
2021/04/14 03:30:09;;;;;;;4.28;2.88;;;0.70;99.90;;;;;;4976351;28;20642;-68
2021/04/14 03:32:35;;;;;;;4.72;2.95;;;0.80;99.90;;;;;;4960365;28;20524;-68
2021/04/14 03:35:05;;;;;;;6.18;3.08;;;0.60;99.90;;;;;;4976253;28;20210;-68
2021/04/14 03:37:32;;;;;;;4.53;2.90;;;0.60;99.90;;;;;;4993284;28;20267;-68
2021/04/14 03:40:01;;;;;;;4.43;2.80;;;0.70;99.90;;;;;;4960843;28;20622;-68
2021/04/14 03:42:29;;;;;;;7.63;4.00;;;0.60;99.90;;;;;;4959832;28;20168;-68
2021/04/14 03:45:00;;;;;;;4.95;3.50;;;0.80;99.90;;;;;;4992415;28;20690;-68
2021/04/14 03:47:27;;;;;;;4.00;3.35;;;0.80;99.90;;;;;;4993529;28;20648;-68
2021/04/14 03:49:54;;;;;;;6.00;3.20;;;0.80;99.90;;;;;;4959444;28;20176;-68
2021/04/14 03:52:21;;;;;;;3.47;2.92;;;0.80;99.90;;;;;;4975784;28;20172;-68
2021/04/14 03:54:48;;;;;;;6.57;4.00;;;0.80;99.90;;;;;;4989559;28;20298;-68
2021/04/14 03:57:14;;;;;;;6.10;3.65;;;0.60;99.90;;;;;;4975876;28;20297;-68
2021/04/14 03:59:41;;;;;;;3.47;3.17;;;0.40;99.90;;;;;;4993198;28;20170;-68
2021/04/14 04:02:08;;;;;;;6.35;3.78;;;0.80;99.90;;;;;;4959281;28;20228;-66
2021/04/14 04:04:34;;;;;;;5.43;3.67;;;0.70;99.90;;;;;;4975342;28;20209;-68
2021/04/14 04:07:00;;;;;;;3.63;2.70;;;0.70;99.90;;;;;;4975495;28;20182;-68
2021/04/14 04:09:27;;;;;;;4.32;3.60;;;0.70;99.90;;;;;;4992788;28;20218;-68
2021/04/14 04:11:53;;;;;;;3.90;3.53;;;0.70;99.90;;;;;;4992896;28;20227;-68
2021/04/14 04:14:19;;;;;;;5.30;3.67;;;0.50;99.90;;;;;;4975653;28;20213;-68
2021/04/14 04:16:51;;;;;;;5.22;3.22;;;0.70;99.90;;;;;;4976722;28;20749;-68
2021/04/14 04:19:17;;;;;;;6.00;3.53;;;0.70;99.90;;;;;;4975024;28;20171;-68
2021/04/14 04:21:43;;;;;;;8.68;4.05;;;0.50;99.90;;;;;;4993158;28;20747;-68
2021/04/14 04:24:11;;;;;;;4.80;3.30;;;0.50;99.90;;;;;;4974285;28;20206;-68
2021/04/14 04:26:37;;;;;;;5.50;3.95;;;0.60;99.90;;;;;;4972231;28;20439;-68
2021/04/14 04:29:04;;;;;;;5.83;3.87;;;0.60;99.90;;;;;;4973921;28;20176;-68
2021/04/14 04:31:32;;;;;;;6.63;3.83;;;0.40;99.90;;;;;;4974353;28;20534;-68
2021/04/14 04:33:59;;;;;;;8.00;4.00;;;0.50;99.90;;;;;;4958478;28;20203;-70
2021/04/14 04:36:25;;;;;;;4.80;3.95;;;0.60;99.90;;;;;;4971230;28;20205;-70
2021/04/14 04:38:51;;;;;;;6.53;4.30;;;0.50;99.90;;;;;;4971470;28;20239;-70
2021/04/14 04:41:30;;;;;;;6.22;3.80;;;0.60;99.90;;;;;;4985799;28;20781;-69
2021/04/14 04:43:56;;;;;;;4.75;3.85;;;0.50;99.90;;;;;;4992049;28;20222;-70
2021/04/14 04:46:24;;;;;;;8.00;3.72;;;0.70;99.90;;;;;;4971032;28;20183;-69
2021/04/14 04:48:53;;;;;;;9.10;4.80;;;0.30;99.90;;;;;;4971484;28;20177;-70
2021/04/14 04:51:19;;;;;;;5.82;3.85;;;0.60;99.90;;;;;;4943115;28;20411;-70
2021/04/14 04:53:45;;;;;;;4.68;3.58;;;0.50;99.90;;;;;;4973836;28;20219;-70
2021/04/14 04:56:18;;;;;;;6.55;4.25;;;0.80;99.90;;;;;;4986153;28;20233;-70
2021/04/14 04:58:47;;;;;;;5.57;3.92;;;0.60;99.90;;;;;;4956770;28;20168;-69
2021/04/14 05:01:16;;;;;;;7.00;4.18;;;0.70;99.90;;;;;;4964780;28;20182;-70
2021/04/14 05:03:52;;;;;;;5.82;4.22;;;0.60;99.90;;;;;;4957117;28;20609;-69
2021/04/14 05:06:19;;;;;;;8.00;4.05;;;0.80;99.90;;;;;;4939839;28;20631;-70
2021/04/14 05:08:45;;;;;;;8.60;4.47;;;0.60;99.90;;;;;;4971994;28;20168;-70
2021/04/14 05:11:11;;;;;;;10.07;4.10;;;0.90;99.90;;;;;;4938894;28;20201;-69
2021/04/14 05:13:37;;;;;;;11.75;4.97;;;0.90;99.90;;;;;;4978374;28;20310;-70
2021/04/14 05:16:04;;;;;;;6.47;4.05;;;0.90;99.90;;;;;;4973951;28;20196;-70
2021/04/14 05:18:34;;;;;;;6.75;4.70;;;1.20;99.90;;;;;;4991085;28;20208;-70
2021/04/14 05:21:02;;;;;;;4.90;4.00;;;1.10;99.90;;;;;;4972382;28;20191;-70
2021/04/14 05:23:30;;;;;;;8.00;4.88;;;1.20;99.90;;;;;;4991445;28;20762;-70
2021/04/14 05:25:56;;;;;;;4.18;3.78;;;1.30;99.90;;;;;;4948900;28;20181;-70
2021/04/14 05:28:26;;;;;;;6.93;3.95;;;1.40;99.90;;;;;;4991847;28;20268;-70
2021/04/14 05:30:52;;;;;;;6.85;4.93;;;1.10;99.90;;;;;;4991197;28;20268;-70
2021/04/14 05:33:19;;;;;;;6.68;4.95;;;1.30;99.90;;;;;;4974835;28;20211;-70
2021/04/14 05:35:50;;;;;;;7.03;4.45;;;1.40;99.90;;;;;;4975056;28;20657;-70
2021/04/14 05:38:24;;;;;;;8.02;4.68;;;1.40;99.90;;;;;;4993452;28;20232;-69
2021/04/14 05:40:50;;;;;;;9.70;4.47;;;1.40;99.90;;;;;;4992386;23;20777;-73
2021/04/14 05:43:28;;;;;;;5.80;4.50;;;1.50;99.90;;;;;;4975713;28;20809;-73
2021/04/14 05:45:59;;;;;;;5.75;4.95;;;1.60;99.90;;;;;;4974395;28;20184;-73
2021/04/14 05:48:26;;;;;;;8.43;4.78;;;1.60;99.90;;;;;;4940709;28;20612;-73
2021/04/14 05:50:58;;;;;;;5.93;4.03;;;1.70;99.90;;;;;;4985782;28;20191;-73
2021/04/14 05:53:27;;;;;;;6.38;4.40;;;1.70;99.90;;;;;;4974392;28;20626;-74
2021/04/14 05:55:57;;;;;;;9.13;4.75;;;1.80;99.90;;;;;;4973243;28;20588;-73
2021/04/14 05:58:33;;;;;;;5.80;4.53;;;1.90;99.90;;;;;;4973950;28;20193;-73
2021/04/14 06:00:59;;;;;;;8.20;4.80;;;1.90;99.90;;;;;;4958349;28;20209;-73
2021/04/14 06:03:26;;;;;;;8.93;4.60;;;1.90;99.90;;;;;;4987944;28;20226;-73
2021/04/14 06:05:59;;;;;;;6.22;4.25;;;2.00;99.90;;;;;;4937797;29;20227;-72
2021/04/14 06:08:27;;;;;;;11.13;4.45;;;2.20;99.90;;;;;;4972538;28;20228;-73
2021/04/14 06:10:57;;;;;;;6.30;5.10;;;2.10;99.90;;;;;;4972942;28;20185;-72
2021/04/14 06:13:31;;;;;;;8.75;4.95;;;2.20;99.90;;;;;;4957097;28;20237;-72
2021/04/14 06:16:03;;;;;;;14.40;6.32;;;2.20;99.90;;;;;;4956972;28;20179;-73
2021/04/14 06:18:29;;;;;;;6.13;5.20;;;2.40;99.90;;;;;;4974366;28;20262;-73
2021/04/14 06:20:56;;;;;;;11.18;6.40;;;2.20;99.90;;;;;;4974416;28;20175;-72
2021/04/14 06:23:29;;;;;;;11.10;6.03;;;2.40;99.90;;;;;;4973249;28;20726;-73
2021/04/14 06:28:39;;;;;;;7.30;5.13;;;2.60;99.90;;;;;;4973642;28;20232;-73
2021/04/14 06:31:06;;;;;;;6.57;4.75;;;2.60;99.90;;;;;;4941006;28;20205;-72
2021/04/14 06:33:35;;;;;;;10.13;5.75;;;2.70;99.90;;;;;;4972710;28;20691;-72
2021/04/14 06:36:02;;;;;;;8.93;5.50;;;2.30;99.90;;;;;;4956497;28;20191;-71
2021/04/14 06:38:31;;;;;;;10.02;5.78;;;3.00;99.90;;;;;;4987882;28;20210;-72
2021/04/14 06:41:38;;;;;;;11.40;6.80;;;3.00;99.90;;;;;;4945760;28;20254;-73
2021/04/14 06:44:20;;;;;;;12.05;6.90;;;3.20;99.90;;;;;;4938680;28;20215;-73
2021/04/14 06:46:53;;;;;;;11.30;5.82;;;3.40;99.90;;;;;;4973705;28;20668;-72
2021/04/14 06:49:41;;;;;;;9.57;6.07;;;3.50;99.90;;;;;;4962409;28;20190;-73
2021/04/14 06:52:41;;;;;;;7.30;5.30;;;3.60;99.90;;;;;;4960451;28;20206;-72
2021/04/14 06:55:15;;;;;;;8.10;5.47;;;3.60;99.90;;;;;;4931972;28;20571;-73
2021/04/14 06:57:49;;;;;;;7.90;5.95;;;3.60;99.90;;;;;;4971563;28;20218;-72
2021/04/14 07:00:32;;;;;;;13.95;6.00;;;3.60;99.90;;;;;;4935190;28;20190;-71
2021/04/14 07:03:09;;;;;;;16.17;10.68;;;3.60;99.90;;;;;;4947896;29;20206;-72
2021/04/14 07:05:43;;;;;;;17.55;7.70;;;3.70;99.90;;;;;;4933963;28;20230;-72
2021/04/14 07:08:31;;;;;;;9.15;6.32;;;3.70;99.90;;;;;;4917169;28;20198;-72
2021/04/14 07:11:00;;;;;;;12.57;8.15;;;3.70;99.90;;;;;;4951552;28;20696;-72
2021/04/14 07:13:31;;;;;;;10.45;6.80;;;3.80;99.90;;;;;;4956326;28;20314;-72
2021/04/14 07:16:24;;;;;;;9.55;7.32;;;3.70;99.90;;;;;;4940253;28;20211;-71
2021/04/14 07:19:02;;;;;;;14.82;7.70;;;3.70;99.90;;;;;;4930169;28;20206;-72
2021/04/14 07:21:42;;;;;;;13.88;8.63;;;3.70;99.90;;;;;;4958729;28;20194;-71
2021/04/14 07:24:36;;;;;;;19.27;10.98;;;3.70;99.90;;;;;;4968859;28;20207;-72
2021/04/14 07:27:17;;;;;;;21.10;13.38;;;3.80;99.90;;;;;;4980687;28;20249;-71
2021/04/14 07:29:49;;;;;;;18.42;9.43;;;3.90;99.90;;;;;;4980861;28;20192;-72
2021/04/14 07:32:16;;;;;;;20.67;11.18;;;3.90;99.90;;;;;;4970538;28;20278;-73
2021/04/14 07:35:11;;;;;;;26.17;12.32;;;4.00;99.90;;;;;;4965916;28;20214;-72
2021/04/14 07:37:44;;;;;;;25.40;11.30;;;4.10;99.90;;;;;;4961236;28;20706;-72
2021/04/14 07:40:17;;;;;;;21.33;12.50;;;4.20;99.90;;;;;;4966389;28;20610;-73
2021/04/14 07:43:53;;;;;;;24.42;14.07;;;4.30;99.90;;;;;;4940070;28;20979;-72
2021/04/14 07:46:25;;;;;;;26.85;12.85;;;4.50;99.90;;;;;;4930075;28;21349;-73
2021/04/14 07:48:56;;;;;;;18.13;11.55;;;4.60;99.90;;;;;;4948987;28;20672;-73
2021/04/14 07:51:23;;;;;;;16.83;11.77;;;4.60;99.90;;;;;;4959356;28;20266;-73
2021/04/14 07:54:00;;;;;;;26.55;13.38;;;4.70;99.90;;;;;;4965680;28;20210;-72
2021/04/14 07:56:26;;;;;;;26.05;14.45;;;4.80;99.90;;;;;;4959399;28;20621;-72
2021/04/14 07:59:08;;;;;;;21.60;12.68;;;4.90;99.90;;;;;;4954516;28;20195;-72
2021/04/14 08:01:37;;;;;;;22.90;12.57;;;4.90;99.90;;;;;;4950174;28;20187;-72
2021/04/14 08:04:21;;;;;;;23.17;12.60;;;4.90;99.90;;;;;;4961586;28;20625;-71
2021/04/14 08:06:47;;;;;;;20.60;12.20;;;4.90;99.90;;;;;;4976411;28;20611;-72
2021/04/14 08:09:20;;;;;;;24.88;10.93;;;4.90;99.90;;;;;;4983969;28;20226;-72
2021/04/14 08:11:50;;;;;;;17.27;10.35;;;5.00;99.90;;;;;;4963502;28;20846;-72
2021/04/14 08:14:32;;;;;;;16.10;11.23;;;5.00;99.90;;;;;;4944617;28;20599;-73
2021/04/14 08:17:09;;;;;;;16.08;10.43;;;5.00;99.90;;;;;;4966785;28;20207;-73
2021/04/14 08:19:37;;;;;;;22.42;11.32;;;5.10;99.90;;;;;;4970021;28;20179;-73
2021/04/14 08:22:10;;;;;;;18.42;11.90;;;5.10;99.90;;;;;;4933353;28;20194;-73
2021/04/14 08:24:48;;;;;;;17.25;11.25;;;5.00;99.90;;;;;;4974106;28;20254;-73
2021/04/14 08:27:20;;;;;;;19.27;12.82;;;5.10;99.90;;;;;;4983549;28;20679;-73
2021/04/14 08:30:10;;;;;;;21.73;13.82;;;5.20;99.90;;;;;;4933795;28;20660;-72
2021/04/14 08:32:43;;;;;;;21.42;11.63;;;5.30;99.90;;;;;;4942798;29;20191;-73
2021/04/14 08:35:30;;;;;;;21.15;12.30;;;5.50;99.90;;;;;;4978933;28;20198;-73
2021/04/14 08:38:11;;;;;;;17.35;11.45;;;5.80;99.90;;;;;;4923465;29;20666;-73
2021/04/14 08:40:51;;;;;;;15.95;11.02;;;6.10;99.90;;;;;;4958701;28;20200;-72
2021/04/14 08:43:27;;;;;;;16.45;11.30;;;6.30;99.90;;;;;;4950447;28;20314;-72
2021/04/14 08:45:54;;;;;;;16.83;10.40;;;6.60;99.90;;;;;;4946600;28;20229;-73
2021/04/14 08:48:30;;;;;;;14.07;10.10;;;6.80;99.90;;;;;;4944064;28;20187;-72
2021/04/14 08:51:04;;;;;;;14.82;10.65;;;7.00;99.90;;;;;;4954705;28;20266;-72
2021/04/14 08:53:34;;;;;;;16.80;10.98;;;7.30;99.90;;;;;;4960962;28;20267;-73
2021/04/14 08:56:01;;;;;;;13.77;10.00;;;7.50;99.90;;;;;;4957845;28;20211;-73
2021/04/14 08:58:28;;;;;;;15.40;10.53;;;7.60;99.90;;;;;;4982200;28;20474;-73
2021/04/14 09:00:58;;;;;;;14.67;11.03;;;7.80;99.90;;;;;;4973725;28;20439;-72
2021/04/14 09:03:32;;;;;;;17.43;10.63;;;8.10;99.90;;;;;;4957587;28;20441;-73
2021/04/14 09:05:59;;;;;;;14.90;11.00;;;8.40;99.90;;;;;;4944990;29;20437;-73
2021/04/14 09:08:35;;;;;;;14.90;11.53;;;8.50;99.90;;;;;;4950244;28;20454;-73
2021/04/14 09:11:09;;;;;;;16.47;12.43;;;8.70;99.90;;;;;;4958598;28;20530;-72
2021/04/14 09:13:49;;;;;;;13.13;10.47;;;9.10;99.90;;;;;;4953676;28;20561;-72
2021/04/14 09:16:39;;;;;;;15.90;11.10;;;9.40;99.90;;;;;;4929381;29;20439;-73
2021/04/14 09:19:26;;;;;;;17.57;12.60;;;9.70;99.90;;;;;;4933910;28;20466;-73
2021/04/14 09:21:57;;;;;;;13.57;11.70;;;9.80;98.50;;;;;;4947954;28;20581;-73
2021/04/14 09:24:41;;;;;;;14.23;10.63;;;9.70;96.70;;;;;;4964241;28;20969;-73
2021/04/14 09:27:22;;;;;;;12.80;10.80;;;9.60;96.20;;;;;;4963690;28;20462;-72
2021/04/14 09:30:01;;;;;;;14.83;11.13;;;9.50;96.10;;;;;;4965774;28;20436;-73
2021/04/14 09:32:52;;;;;;;13.30;11.17;;;9.50;98.90;;;;;;4959498;28;20572;-73
2021/04/14 09:35:28;;;;;;;14.70;12.30;;;9.60;99.10;;;;;;4961054;28;20453;-73
2021/04/14 09:38:40;;;;;;;14.57;10.70;;;9.40;96.00;;;;;;4945103;28;20923;-72
2021/04/14 09:41:14;;;;;;;14.83;12.07;;;9.20;97.70;;;;;;4960172;28;20433;-73
2021/04/14 09:43:48;;;;;;;13.17;11.83;;;9.30;98.70;;;;;;4965520;28;20464;-73
2021/04/14 09:46:34;;;;;;;14.30;12.00;;;9.50;97.70;;;;;;4960892;28;20433;-73
2021/04/14 09:49:17;;;;;;;12.07;10.43;;;9.60;95.40;;;;;;4967886;28;20706;-73
2021/04/14 09:51:59;;;;;;;12.20;10.97;;;9.70;94.10;;;;;;4935590;28;20445;-73
2021/04/14 09:54:32;;;;;;;11.23;10.13;;;9.80;92.50;;;;;;4969909;28;20446;-73
2021/04/14 09:57:03;;;;;;;11.23;9.97;;;9.60;93.60;;;;;;4959077;28;21189;-73
2021/04/14 09:59:39;;;;;;;11.60;10.43;;;9.70;93.00;;;;;;4967141;28;20449;-72
2021/04/14 10:02:20;;;;;;;15.57;11.07;;;9.80;94.00;;;;;;4960408;28;20446;-73
2021/04/14 10:04:48;;;;;;;13.33;11.43;;;9.80;92.60;;;;;;4965643;28;20453;-73
2021/04/14 10:07:25;;;;;;;17.50;11.30;;;9.70;91.80;;;;;;4953149;28;20442;-73
2021/04/14 10:10:04;;;;;;;13.10;10.57;;;9.60;92.40;;;;;;4954357;28;20796;-72
2021/04/14 10:12:30;;;;;;;11.70;10.50;;;9.70;93.80;;;;;;4948992;28;20481;-73
2021/04/14 10:15:04;;;;;;;11.30;10.03;;;9.60;93.50;;;;;;4966939;28;20461;-73
2021/04/14 10:17:32;;;;;;;11.57;10.37;;;9.90;93.60;;;;;;4950593;28;20463;-73
2021/04/14 10:20:25;;;;;;;13.00;11.27;;;10.20;91.60;;;;;;4972806;28;20954;-73
2021/04/14 10:22:51;;;;;;;10.27;9.20;;;10.40;88.40;;;;;;4968186;28;20435;-73
2021/04/14 10:25:21;;;;;;;12.27;11.07;;;10.40;85.60;;;;;;4957260;28;20455;-73
2021/04/14 10:28:05;;;;;;;16.37;11.73;;;10.60;84.30;;;;;;4945288;28;20439;-75
2021/04/14 10:30:39;;;;;;;15.97;12.03;;;10.70;84.50;;;;;;4959255;28;21003;-72
2021/04/14 10:33:21;;;;;;;13.57;11.77;;;10.50;86.90;;;;;;4953408;28;20950;-75
2021/04/14 10:35:50;;;;;;;15.27;12.40;;;10.70;84.40;;;;;;4954067;28;20431;-75
2021/04/14 10:38:34;;;;;;;15.70;10.07;;;11.00;89.70;;;;;;4958657;28;20481;-75
2021/04/14 10:41:39;;;;;;;12.77;11.57;;;11.30;84.90;;;;;;4971620;28;20446;-76
2021/04/14 10:44:25;;;;;;;14.00;11.83;;;11.80;82.30;;;;;;4907382;29;20608;-75
2021/04/14 10:47:09;;;;;;;12.90;11.60;;;11.80;78.90;;;;;;4958579;28;20606;-78
2021/04/14 10:49:38;;;;;;;14.23;10.87;;;11.90;77.80;;;;;;4960610;28;20442;-74
2021/04/14 10:52:19;;;;;;;17.13;11.67;;;12.10;78.30;;;;;;4982010;28;20788;-75
2021/04/14 10:54:55;;;;;;;12.30;11.10;;;12.40;78.30;;;;;;4914843;29;20468;-75
2021/04/14 10:57:34;;;;;;;13.60;12.20;;;12.50;77.10;;;;;;4942101;28;20490;-75
2021/04/14 11:00:09;;;;;;;14.20;12.70;;;12.70;77.00;;;;;;4959915;28;21020;-74
2021/04/14 11:02:37;;;;;;;12.80;11.60;;;12.80;74.20;;;;;;4959363;28;20835;-74
2021/04/14 11:05:10;;;;;;;13.07;11.73;;;12.80;76.20;;;;;;4961088;28;20441;-73
2021/04/14 11:07:38;;;;;;;13.10;11.80;;;12.60;75.60;;;;;;4962674;28;20442;-74
2021/04/14 11:10:13;;;;;;;13.50;11.20;;;12.20;75.10;;;;;;4928341;28;20437;-76
2021/04/14 11:12:51;;;;;;;11.73;10.53;;;11.90;72.10;;;;;;4942658;28;20487;-74
2021/04/14 11:15:28;;;;;;;12.20;11.10;;;11.70;73.00;;;;;;4969317;28;20948;-75
2021/04/14 11:18:03;;;;;;;11.97;10.90;;;11.70;74.90;;;;;;4956632;28;20622;-74
2021/04/14 11:20:49;;;;;;;12.20;11.07;;;11.70;74.00;;;;;;4972834;28;20447;-75
2021/04/14 11:23:25;;;;;;;13.97;11.20;;;11.70;64.80;;;;;;4945044;28;20457;-74
2021/04/14 11:26:13;;;;;;;15.47;11.90;;;11.60;70.10;;;;;;4961680;28;20445;-74
2021/04/14 11:28:42;;;;;;;13.90;12.60;;;11.90;71.10;;;;;;4958781;28;20441;-75
2021/04/14 11:31:09;;;;;;;17.03;12.17;;;12.20;71.10;;;;;;4956947;28;20497;-74
2021/04/14 11:33:44;;;;;;;13.53;12.33;;;12.20;69.70;;;;;;4962632;28;20458;-74
2021/04/14 11:36:27;;;;;;;11.97;10.87;;;12.20;66.20;;;;;;4924851;28;20480;-74
2021/04/14 11:39:11;;;;;;;12.63;11.27;;;12.50;70.50;;;;;;4973512;28;20549;-74
2021/04/14 11:42:05;;;;;;;12.70;11.07;;;12.60;70.60;;;;;;4941683;29;20682;-74
2021/04/14 11:44:45;;;;;;;17.13;11.37;;;12.90;69.40;;;;;;4954034;28;20477;-74
2021/04/14 11:47:31;;;;;;;13.27;11.87;;;13.10;66.20;;;;;;4972539;28;20864;-74
2021/04/14 11:50:09;;;;;;;13.77;11.37;;;12.80;67.30;;;;;;4975415;28;20470;-74
2021/04/14 11:52:38;;;;;;;17.63;13.50;;;12.80;64.80;;;;;;4932586;28;20430;-74
2021/04/14 11:55:14;;;;;;;15.70;13.67;;;12.20;73.30;;;;;;4967200;28;20444;-74
2021/04/14 11:57:43;;;;;;;14.80;13.30;;;11.50;81.60;;;;;;4969048;28;20477;-75
2021/04/14 12:00:23;;;;;;;15.00;13.53;;;10.40;86.80;;;;;;4951504;28;20451;-74
2021/04/14 12:02:52;;;;;;;14.30;12.90;;;9.70;91.90;;;;;;4949877;28;20439;-74
2021/04/14 12:05:24;;;;;;;13.30;11.90;;;9.30;94.80;;;;;;4958702;28;20444;-74
2021/04/14 12:07:51;;;;;;;14.13;12.17;;;9.10;96.90;;;;;;4957246;28;20441;-74
2021/04/14 12:10:18;;;;;;;15.13;12.98;;;9.00;97.80;;;;;;4954409;28;20455;-74
2021/04/14 12:12:48;;;;;;;14.80;12.30;;;8.60;97.30;;;;;;4960663;28;20232;-74
2021/04/14 12:15:16;;;;;;;14.17;12.70;;;8.50;98.30;;;;;;4958514;28;20439;-74
2021/04/14 12:17:53;;;;;;;14.55;11.75;;;8.50;98.50;;;;;;4958443;28;20487;-73
2021/04/14 12:20:19;;;;;;;13.67;12.23;;;8.30;99.90;;;;;;4950960;28;20650;-74
2021/04/14 12:22:46;;;;;;;13.57;12.07;;;8.20;99.90;;;;;;4947527;28;20440;-74
2021/04/14 12:25:16;;;;;;;15.40;12.03;;;8.00;99.90;;;;;;4944106;28;20432;-74
2021/04/14 12:27:51;;;;;;;15.23;12.10;;;7.80;99.90;;;;;;4934290;28;20455;-74
2021/04/14 12:30:26;;;;;;;17.67;13.32;;;7.60;99.90;;;;;;4980406;28;20202;-74
2021/04/14 12:32:55;;;;;;;14.43;11.93;;;7.60;99.90;;;;;;4955987;28;20188;-74
2021/04/14 12:35:23;;;;;;;14.23;11.33;;;7.60;99.90;;;;;;4952753;28;20465;-74
2021/04/14 12:37:50;;;;;;;17.80;11.43;;;7.70;99.90;;;;;;4933764;28;20536;-74
2021/04/14 12:40:17;;;;;;;13.40;12.05;;;7.90;99.90;;;;;;4962764;28;20271;-74
2021/04/14 12:42:45;;;;;;;13.33;11.93;;;8.20;99.90;;;;;;4959190;28;20236;-74
2021/04/14 12:45:37;;;;;;;14.13;12.07;;;8.80;99.90;;;;;;4943497;28;20448;-74
2021/04/14 12:48:08;;;;;;;13.40;11.50;;;9.30;99.90;;;;;;4966029;28;20441;-74
2021/04/14 12:50:34;;;;;;;12.53;11.30;;;9.50;99.90;;;;;;4936534;28;20826;-74
2021/04/14 12:53:05;;;;;;;13.07;10.73;;;9.70;99.80;;;;;;4964305;28;20466;-74
2021/04/14 12:55:47;;;;;;;12.70;11.50;;;9.80;99.20;;;;;;4962154;28;20947;-74
2021/04/14 12:58:27;;;;;;;11.83;10.63;;;9.50;98.80;;;;;;4949845;28;20474;-73
2021/04/14 13:00:56;;;;;;;13.00;11.67;;;9.30;99.00;;;;;;4946827;28;20950;-73
2021/04/14 13:04:14;;;;;;;12.93;11.73;;;9.40;97.70;;;;;;4941907;28;20441;-74
2021/04/14 13:06:48;;;;;;;14.70;12.30;;;9.30;98.80;;;;;;4946937;28;20466;-73
2021/04/14 13:09:16;;;;;;;12.13;10.77;;;9.40;98.60;;;;;;4977046;28;20676;-74
2021/04/14 13:12:11;;;;;;;16.30;12.83;;;9.50;98.80;;;;;;4974068;28;20485;-74
2021/04/14 13:14:37;;;;;;;13.70;12.33;;;9.80;98.50;;;;;;4946338;28;21156;-74
2021/04/14 13:17:15;;;;;;;16.37;13.87;;;10.10;96.70;;;;;;4935941;28;20703;-74